sensor_id;sensor_type;location;lat;lon;timestamp;pressure;altitude;pressure_sealevel;temperature;humidity
29371;BME280;16357;52.188;7.838;2023-04-29T00:02:12;100459.94;;;14.44;63.06
29371;BME280;16357;52.188;7.838;2023-04-29T00:04:39;100461.81;;;14.44;62.87
29371;BME280;16357;52.188;7.838;2023-04-29T00:07:06;100466.19;;;14.45;62.80
29371;BME280;16357;52.188;7.838;2023-04-29T00:09:34;100472.63;;;14.44;62.85
29371;BME280;16357;52.188;7.838;2023-04-29T00:12:01;100458.47;;;14.42;62.82
29371;BME280;16357;52.188;7.838;2023-04-29T00:14:27;100473.19;;;14.39;62.67
29371;BME280;16357;52.188;7.838;2023-04-29T00:16:54;100469.00;;;14.37;62.53
29371;BME280;16357;52.188;7.838;2023-04-29T00:19:20;100465.84;;;14.33;62.47
29371;BME280;16357;52.188;7.838;2023-04-29T00:21:47;100475.31;;;14.29;62.38
29371;BME280;16357;52.188;7.838;2023-04-29T00:24:13;100481.09;;;14.26;62.66
29371;BME280;16357;52.188;7.838;2023-04-29T00:26:39;100490.59;;;14.22;62.75
29371;BME280;16357;52.188;7.838;2023-04-29T00:29:06;100478.50;;;14.18;62.90
29371;BME280;16357;52.188;7.838;2023-04-29T00:31:32;100480.75;;;14.14;62.73
29371;BME280;16357;52.188;7.838;2023-04-29T00:33:59;100481.28;;;14.10;63.21
29371;BME280;16357;52.188;7.838;2023-04-29T00:36:25;100496.00;;;14.07;63.27
29371;BME280;16357;52.188;7.838;2023-04-29T00:38:53;100487.44;;;14.03;63.42
29371;BME280;16357;52.188;7.838;2023-04-29T00:41:20;100491.34;;;14.01;63.53
29371;BME280;16357;52.188;7.838;2023-04-29T00:43:46;100491.69;;;13.98;63.80
29371;BME280;16357;52.188;7.838;2023-04-29T00:46:13;100498.13;;;13.97;63.71
29371;BME280;16357;52.188;7.838;2023-04-29T00:48:39;100499.31;;;13.94;64.00
29371;BME280;16357;52.188;7.838;2023-04-29T00:51:07;100504.06;;;13.92;63.78
29371;BME280;16357;52.188;7.838;2023-04-29T00:53:33;100508.81;;;13.90;63.93
29371;BME280;16357;52.188;7.838;2023-04-29T00:56:01;100505.47;;;13.88;63.89
29371;BME280;16357;52.188;7.838;2023-04-29T00:58:31;100503.78;;;13.87;63.69
29371;BME280;16357;52.188;7.838;2023-04-29T01:01:01;100515.75;;;13.84;63.98
29371;BME280;16357;52.188;7.838;2023-04-29T01:03:29;100518.00;;;13.81;64.02
29371;BME280;16357;52.188;7.838;2023-04-29T01:11:48;100525.97;;;13.74;63.87
29371;BME280;16357;52.188;7.838;2023-04-29T01:14:19;100527.19;;;13.72;64.58
29371;BME280;16357;52.188;7.838;2023-04-29T01:16:50;100532.59;;;13.72;64.38
29371;BME280;16357;52.188;7.838;2023-04-29T01:22:03;100530.88;;;13.71;64.56
29371;BME280;16357;52.188;7.838;2023-04-29T01:24:30;100541.88;;;13.69;64.68
29371;BME280;16357;52.188;7.838;2023-04-29T01:27:04;100543.72;;;13.69;64.66
29371;BME280;16357;52.188;7.838;2023-04-29T01:32:17;100550.28;;;13.66;64.71
29371;BME280;16357;52.188;7.838;2023-04-29T01:34:56;100552.16;;;13.66;64.52
29371;BME280;16357;52.188;7.838;2023-04-29T01:37:37;100549.66;;;13.64;64.67
29371;BME280;16357;52.188;7.838;2023-04-29T01:40:21;100561.44;;;13.63;64.76
29371;BME280;16357;52.188;7.838;2023-04-29T01:42:58;100562.47;;;13.62;64.98
29371;BME280;16357;52.188;7.838;2023-04-29T01:45:26;100558.44;;;13.58;65.10
29371;BME280;16357;52.188;7.838;2023-04-29T01:47:54;100557.63;;;13.57;65.30
29371;BME280;16357;52.188;7.838;2023-04-29T01:50:23;100563.38;;;13.54;65.16
29371;BME280;16357;52.188;7.838;2023-04-29T01:52:50;100559.00;;;13.53;65.26
29371;BME280;16357;52.188;7.838;2023-04-29T01:55:16;100565.41;;;13.52;65.49
29371;BME280;16357;52.188;7.838;2023-04-29T01:57:43;100563.75;;;13.51;65.46
29371;BME280;16357;52.188;7.838;2023-04-29T02:00:10;100565.59;;;13.51;65.61
29371;BME280;16357;52.188;7.838;2023-04-29T02:02:37;100565.41;;;13.52;65.75
29371;BME280;16357;52.188;7.838;2023-04-29T02:05:03;100579.09;;;13.51;65.75
29371;BME280;16357;52.188;7.838;2023-04-29T02:07:30;100575.34;;;13.52;65.73
29371;BME280;16357;52.188;7.838;2023-04-29T02:09:56;100574.53;;;13.51;65.67
29371;BME280;16357;52.188;7.838;2023-04-29T02:12:23;100583.59;;;13.50;65.74
29371;BME280;16357;52.188;7.838;2023-04-29T02:14:52;100588.00;;;13.51;65.44
29371;BME280;16357;52.188;7.838;2023-04-29T02:17:19;100588.16;;;13.50;65.74
29371;BME280;16357;52.188;7.838;2023-04-29T02:19:46;100588.38;;;13.48;65.65
29371;BME280;16357;52.188;7.838;2023-04-29T02:22:12;100589.19;;;13.49;65.62
29371;BME280;16357;52.188;7.838;2023-04-29T02:24:38;100590.19;;;13.48;65.58
29371;BME280;16357;52.188;7.838;2023-04-29T02:27:05;100600.13;;;13.47;65.69
29371;BME280;16357;52.188;7.838;2023-04-29T02:29:32;100600.13;;;13.47;65.73
29371;BME280;16357;52.188;7.838;2023-04-29T02:31:58;100605.53;;;13.47;65.87
29371;BME280;16357;52.188;7.838;2023-04-29T02:34:25;100604.53;;;13.48;65.76
29371;BME280;16357;52.188;7.838;2023-04-29T02:36:51;100603.50;;;13.49;65.76
29371;BME280;16357;52.188;7.838;2023-04-29T02:39:17;100614.44;;;13.48;65.94
29371;BME280;16357;52.188;7.838;2023-04-29T02:41:45;100612.41;;;13.50;65.83
29371;BME280;16357;52.188;7.838;2023-04-29T02:44:12;100608.88;;;13.49;65.84
29371;BME280;16357;52.188;7.838;2023-04-29T02:46:38;100608.88;;;13.49;65.88
29371;BME280;16357;52.188;7.838;2023-04-29T02:49:07;100615.94;;;13.50;65.95
29371;BME280;16357;52.188;7.838;2023-04-29T02:51:34;100614.28;;;13.49;65.75
29371;BME280;16357;52.188;7.838;2023-04-29T02:54:00;100621.34;;;13.50;65.87
29371;BME280;16357;52.188;7.838;2023-04-29T02:56:27;100624.91;;;13.51;65.68
29371;BME280;16357;52.188;7.838;2023-04-29T02:58:54;100619.66;;;13.49;65.64
29371;BME280;16357;52.188;7.838;2023-04-29T03:01:21;100623.19;;;13.50;65.80
29371;BME280;16357;52.188;7.838;2023-04-29T03:03:47;100624.03;;;13.50;65.61
29371;BME280;16357;52.188;7.838;2023-04-29T03:06:14;100628.78;;;13.48;65.37
29371;BME280;16357;52.188;7.838;2023-04-29T03:08:41;100637.03;;;13.47;65.04
29371;BME280;16357;52.188;7.838;2023-04-29T03:11:08;100634.50;;;13.45;65.09
29371;BME280;16357;52.188;7.838;2023-04-29T03:13:34;100641.28;;;13.41;65.33
29371;BME280;16357;52.188;7.838;2023-04-29T03:16:01;100639.78;;;13.38;65.24
29371;BME280;16357;52.188;7.838;2023-04-29T03:18:27;100646.38;;;13.36;65.32
29371;BME280;16357;52.188;7.838;2023-04-29T03:20:54;100639.63;;;13.32;65.56
29371;BME280;16357;52.188;7.838;2023-04-29T03:23:20;100651.59;;;13.29;65.42
29371;BME280;16357;52.188;7.838;2023-04-29T03:25:47;100647.56;;;13.25;65.27
29371;BME280;16357;52.188;7.838;2023-04-29T03:28:14;100660.53;;;13.22;65.40
29371;BME280;16357;52.188;7.838;2023-04-29T03:30:40;100645.75;;;13.17;65.49
29371;BME280;16357;52.188;7.838;2023-04-29T03:33:07;100655.38;;;13.12;65.85
29371;BME280;16357;52.188;7.838;2023-04-29T03:35:33;100663.16;;;13.07;65.95
29371;BME280;16357;52.188;7.838;2023-04-29T03:38:00;100658.47;;;13.01;66.08
29371;BME280;16357;52.188;7.838;2023-04-29T03:40:26;100660.66;;;12.97;66.04
29371;BME280;16357;52.188;7.838;2023-04-29T03:42:53;100672.78;;;12.93;66.27
29371;BME280;16357;52.188;7.838;2023-04-29T03:45:19;100664.03;;;12.91;66.17
29371;BME280;16357;52.188;7.838;2023-04-29T03:47:46;100666.22;;;12.87;66.51
29371;BME280;16357;52.188;7.838;2023-04-29T03:50:12;100685.06;;;12.87;66.42
29371;BME280;16357;52.188;7.838;2023-04-29T03:52:39;100671.13;;;12.84;66.60
29371;BME280;16357;52.188;7.838;2023-04-29T03:55:05;100672.97;;;12.83;66.58
29371;BME280;16357;52.188;7.838;2023-04-29T03:57:32;100673.16;;;12.82;66.64
29371;BME280;16357;52.188;7.838;2023-04-29T03:59:58;100679.56;;;12.81;66.56
29371;BME280;16357;52.188;7.838;2023-04-29T04:02:25;100690.66;;;12.78;66.81
29371;BME280;16357;52.188;7.838;2023-04-29T04:04:51;100681.09;;;12.75;66.88
29371;BME280;16357;52.188;7.838;2023-04-29T04:07:20;100685.78;;;12.73;67.09
29371;BME280;16357;52.188;7.838;2023-04-29T04:09:47;100698.56;;;12.71;67.43
29371;BME280;16357;52.188;7.838;2023-04-29T04:12:13;100705.16;;;12.68;67.28
29371;BME280;16357;52.188;7.838;2023-04-29T04:14:39;100702.78;;;12.65;67.56
29371;BME280;16357;52.188;7.838;2023-04-29T04:17:06;100702.13;;;12.63;67.55
29371;BME280;16357;52.188;7.838;2023-04-29T04:19:32;100710.19;;;12.63;67.64
29371;BME280;16357;52.188;7.838;2023-04-29T04:21:59;100719.28;;;12.62;67.74
29371;BME280;16357;52.188;7.838;2023-04-29T04:24:25;100717.63;;;12.61;67.67
29371;BME280;16357;52.188;7.838;2023-04-29T04:26:52;100721.16;;;12.62;67.97
29371;BME280;16357;52.188;7.838;2023-04-29T04:29:18;100729.38;;;12.60;67.91
29371;BME280;16357;52.188;7.838;2023-04-29T04:31:44;100725.03;;;12.59;67.92
29371;BME280;16357;52.188;7.838;2023-04-29T04:34:12;100724.19;;;12.59;68.04
29371;BME280;16357;52.188;7.838;2023-04-29T04:36:39;100730.41;;;12.59;68.25
29371;BME280;16357;52.188;7.838;2023-04-29T04:39:05;100738.47;;;12.59;68.28
29371;BME280;16357;52.188;7.838;2023-04-29T04:41:31;100740.16;;;12.60;68.22
29371;BME280;16357;52.188;7.838;2023-04-29T04:43:58;100749.91;;;12.61;68.16
29371;BME280;16357;52.188;7.838;2023-04-29T04:46:25;100740.00;;;12.62;68.19
29371;BME280;16357;52.188;7.838;2023-04-29T04:48:51;100751.44;;;12.64;68.33
29371;BME280;16357;52.188;7.838;2023-04-29T04:51:17;100750.22;;;12.66;68.19
29371;BME280;16357;52.188;7.838;2023-04-29T04:53:44;100750.91;;;12.68;68.18
29371;BME280;16357;52.188;7.838;2023-04-29T04:56:10;100761.31;;;12.71;68.16
29371;BME280;16357;52.188;7.838;2023-04-29T04:58:37;100765.53;;;12.74;67.78
29371;BME280;16357;52.188;7.838;2023-04-29T05:01:03;100763.50;;;12.76;67.84
29371;BME280;16357;52.188;7.838;2023-04-29T05:03:30;100769.72;;;12.77;67.58
29371;BME280;16357;52.188;7.838;2023-04-29T05:05:58;100777.50;;;12.80;67.52
29371;BME280;16357;52.188;7.838;2023-04-29T05:08:25;100776.81;;;12.78;67.43
29371;BME280;16357;52.188;7.838;2023-04-29T05:10:52;100779.66;;;12.76;67.36
29371;BME280;16357;52.188;7.838;2023-04-29T05:13:19;100786.22;;;12.73;67.61
29371;BME280;16357;52.188;7.838;2023-04-29T05:15:46;100789.09;;;12.72;67.46
29371;BME280;16357;52.188;7.838;2023-04-29T05:18:12;100793.63;;;12.71;67.56
29371;BME280;16357;52.188;7.838;2023-04-29T05:20:39;100784.03;;;12.69;67.57
29371;BME280;16357;52.188;7.838;2023-04-29T05:23:05;100788.59;;;12.68;67.61
29371;BME280;16357;52.188;7.838;2023-04-29T05:25:32;100794.16;;;12.67;67.73
29371;BME280;16357;52.188;7.838;2023-04-29T05:27:58;100795.00;;;12.67;67.59
29371;BME280;16357;52.188;7.838;2023-04-29T05:30:25;100797.69;;;12.67;67.75
29371;BME280;16357;52.188;7.838;2023-04-29T05:32:52;100807.63;;;12.67;67.88
29371;BME280;16357;52.188;7.838;2023-04-29T05:35:18;100808.44;;;12.67;67.68
29371;BME280;16357;52.188;7.838;2023-04-29T05:37:45;100808.44;;;12.67;67.75
29371;BME280;16357;52.188;7.838;2023-04-29T05:40:12;100809.44;;;12.66;67.74
29371;BME280;16357;52.188;7.838;2023-04-29T05:42:38;100812.31;;;12.65;67.84
29371;BME280;16357;52.188;7.838;2023-04-29T05:45:05;100823.22;;;12.63;67.71
29371;BME280;16357;52.188;7.838;2023-04-29T05:47:32;100821.56;;;12.62;67.79
29371;BME280;16357;52.188;7.838;2023-04-29T05:49:58;100826.28;;;12.60;67.94
29371;BME280;16357;52.188;7.838;2023-04-29T05:52:25;100825.28;;;12.61;67.97
29371;BME280;16357;52.188;7.838;2023-04-29T05:54:51;100830.66;;;12.61;68.02
29371;BME280;16357;52.188;7.838;2023-04-29T05:57:18;100830.47;;;12.63;68.17
29371;BME280;16357;52.188;7.838;2023-04-29T05:59:44;100832.00;;;12.65;68.03
29371;BME280;16357;52.188;7.838;2023-04-29T06:02:11;100836.34;;;12.66;67.84
29371;BME280;16357;52.188;7.838;2023-04-29T06:04:37;100843.25;;;12.69;67.89
29371;BME280;16357;52.188;7.838;2023-04-29T06:07:06;100854.03;;;12.69;67.68
29371;BME280;16357;52.188;7.838;2023-04-29T06:09:35;100852.34;;;12.68;67.55
29371;BME280;16357;52.188;7.838;2023-04-29T06:12:02;100853.19;;;12.68;67.80
29371;BME280;16357;52.188;7.838;2023-04-29T06:14:29;100873.03;;;12.67;67.62
29371;BME280;16357;52.188;7.838;2023-04-29T06:16:55;100871.34;;;12.66;67.61
29371;BME280;16357;52.188;7.838;2023-04-29T06:19:22;100872.38;;;12.65;67.50
29371;BME280;16357;52.188;7.838;2023-04-29T06:21:50;100882.13;;;12.66;67.71
29371;BME280;16357;52.188;7.838;2023-04-29T06:24:16;100881.13;;;12.67;67.64
29371;BME280;16357;52.188;7.838;2023-04-29T06:26:43;100887.34;;;12.68;67.62
29371;BME280;16357;52.188;7.838;2023-04-29T06:29:09;100892.56;;;12.69;67.29
29371;BME280;16357;52.188;7.838;2023-04-29T06:31:36;100889.00;;;12.69;67.41
29371;BME280;16357;52.188;7.838;2023-04-29T06:34:03;100893.56;;;12.68;67.07
29371;BME280;16357;52.188;7.838;2023-04-29T06:36:30;100897.28;;;12.67;67.19
29371;BME280;16357;52.188;7.838;2023-04-29T06:38:57;100895.56;;;12.66;67.42
29371;BME280;16357;52.188;7.838;2023-04-29T06:41:24;100903.66;;;12.66;67.56
29371;BME280;16357;52.188;7.838;2023-04-29T06:43:50;100899.97;;;12.67;67.50
29371;BME280;16357;52.188;7.838;2023-04-29T06:46:17;100901.47;;;12.70;67.58
29371;BME280;16357;52.188;7.838;2023-04-29T06:48:43;100899.97;;;12.76;67.60
29371;BME280;16357;52.188;7.838;2023-04-29T06:51:10;100900.31;;;12.81;67.54
29371;BME280;16357;52.188;7.838;2023-04-29T06:53:36;100912.09;;;12.88;67.27
29371;BME280;16357;52.188;7.838;2023-04-29T06:56:03;100916.81;;;12.94;66.97
29371;BME280;16357;52.188;7.838;2023-04-29T06:58:31;100919.84;;;12.99;66.36
29371;BME280;16357;52.188;7.838;2023-04-29T07:00:58;100929.94;;;13.05;66.16
29371;BME280;16357;52.188;7.838;2023-04-29T07:03:25;100932.28;;;13.08;65.59
29371;BME280;16357;52.188;7.838;2023-04-29T07:05:51;100928.25;;;13.12;65.52
29371;BME280;16357;52.188;7.838;2023-04-29T07:08:18;100934.81;;;13.18;65.63
29371;BME280;16357;52.188;7.838;2023-04-29T07:10:52;100944.06;;;13.24;65.57
29371;BME280;16357;52.188;7.838;2023-04-29T07:13:19;100944.44;;;13.29;65.37
29371;BME280;16357;52.188;7.838;2023-04-29T07:15:46;100953.69;;;13.34;65.28
29371;BME280;16357;52.188;7.838;2023-04-29T07:18:12;100960.25;;;13.40;64.60
29371;BME280;16357;52.188;7.838;2023-04-29T07:20:39;100969.56;;;13.46;64.61
29371;BME280;16357;52.188;7.838;2023-04-29T07:23:05;100965.34;;;13.51;64.49
29371;BME280;16357;52.188;7.838;2023-04-29T07:25:32;100967.34;;;13.57;64.38
29371;BME280;16357;52.188;7.838;2023-04-29T07:27:59;100973.75;;;13.65;63.88
29371;BME280;16357;52.188;7.838;2023-04-29T07:30:25;100974.75;;;13.72;63.59
29371;BME280;16357;52.188;7.838;2023-04-29T07:32:52;100981.13;;;13.79;63.33
29371;BME280;16357;52.188;7.838;2023-04-29T07:35:19;100981.09;;;13.87;63.25
29371;BME280;16357;52.188;7.838;2023-04-29T07:37:45;100983.75;;;13.95;63.07
29371;BME280;16357;52.188;7.838;2023-04-29T07:40:12;100991.00;;;14.03;63.03
29371;BME280;16357;52.188;7.838;2023-04-29T07:42:39;100992.84;;;14.11;62.63
29371;BME280;16357;52.188;7.838;2023-04-29T07:45:06;100995.69;;;14.17;62.13
29371;BME280;16357;52.188;7.838;2023-04-29T07:47:32;100987.72;;;14.24;61.86
29371;BME280;16357;52.188;7.838;2023-04-29T07:49:59;100995.16;;;14.30;61.68
29371;BME280;16357;52.188;7.838;2023-04-29T07:52:26;100998.81;;;14.37;61.49
29371;BME280;16357;52.188;7.838;2023-04-29T07:54:52;101004.16;;;14.45;61.27
29371;BME280;16357;52.188;7.838;2023-04-29T07:57:21;101012.41;;;14.52;60.82
29371;BME280;16357;52.188;7.838;2023-04-29T07:59:54;101022.22;;;14.61;61.42
29371;BME280;16357;52.188;7.838;2023-04-29T08:02:20;101023.38;;;14.67;61.20
29371;BME280;16357;52.188;7.838;2023-04-29T08:04:47;101032.25;;;14.76;60.78
29371;BME280;16357;52.188;7.838;2023-04-29T08:07:14;101028.69;;;14.83;60.05
29371;BME280;16357;52.188;7.838;2023-04-29T08:09:41;101030.84;;;14.88;59.44
29371;BME280;16357;52.188;7.838;2023-04-29T08:12:07;101035.06;;;14.90;59.36
29371;BME280;16357;52.188;7.838;2023-04-29T08:14:34;101041.28;;;14.91;59.45
29371;BME280;16357;52.188;7.838;2023-04-29T08:17:00;101042.13;;;14.91;59.15
29371;BME280;16357;52.188;7.838;2023-04-29T08:19:27;101057.97;;;14.95;59.17
29371;BME280;16357;52.188;7.838;2023-04-29T08:21:53;101057.97;;;14.95;58.85
29371;BME280;16357;52.188;7.838;2023-04-29T08:24:20;101055.94;;;14.97;59.06
29371;BME280;16357;52.188;7.838;2023-04-29T08:26:47;101057.47;;;14.99;58.79
29371;BME280;16357;52.188;7.838;2023-04-29T08:29:14;101058.13;;;15.01;58.35
29371;BME280;16357;52.188;7.838;2023-04-29T08:31:41;101065.03;;;15.04;58.46
29371;BME280;16357;52.188;7.838;2023-04-29T08:34:07;101053.03;;;15.06;58.41
29371;BME280;16357;52.188;7.838;2023-04-29T08:36:34;101057.88;;;15.11;58.55
29371;BME280;16357;52.188;7.838;2023-04-29T08:39:02;101067.31;;;15.15;58.00
29371;BME280;16357;52.188;7.838;2023-04-29T08:41:30;101077.41;;;15.21;58.16
29371;BME280;16357;52.188;7.838;2023-04-29T08:43:58;101070.63;;;15.25;57.96
29371;BME280;16357;52.188;7.838;2023-04-29T08:46:26;101076.34;;;15.30;57.81
29371;BME280;16357;52.188;7.838;2023-04-29T08:48:53;101077.50;;;15.36;57.52
29371;BME280;16357;52.188;7.838;2023-04-29T08:51:21;101084.03;;;15.42;57.46
29371;BME280;16357;52.188;7.838;2023-04-29T08:53:48;101085.19;;;15.47;57.29
29371;BME280;16357;52.188;7.838;2023-04-29T08:56:18;101085.31;;;15.54;57.42
29371;BME280;16357;52.188;7.838;2023-04-29T08:58:49;101079.16;;;15.60;56.94
29371;BME280;16357;52.188;7.838;2023-04-29T09:01:20;101073.69;;;15.68;57.34
29371;BME280;16357;52.188;7.838;2023-04-29T09:04:11;101088.69;;;15.79;56.09
29371;BME280;16357;52.188;7.838;2023-04-29T09:06:41;101076.94;;;15.87;56.12
29371;BME280;16357;52.188;7.838;2023-04-29T09:09:08;101084.31;;;15.93;55.75
29371;BME280;16357;52.188;7.838;2023-04-29T09:11:35;101080.25;;;15.97;55.56
29371;BME280;16357;52.188;7.838;2023-04-29T09:14:02;101073.44;;;16.01;55.62
29371;BME280;16357;52.188;7.838;2023-04-29T09:16:29;101090.63;;;16.08;54.97
29371;BME280;16357;52.188;7.838;2023-04-29T09:18:56;101086.53;;;16.12;54.81
29371;BME280;16357;52.188;7.838;2023-04-29T09:21:24;101090.19;;;16.19;55.15
29371;BME280;16357;52.188;7.838;2023-04-29T09:23:56;101088.22;;;16.28;54.77
29371;BME280;16357;52.188;7.838;2023-04-29T09:26:23;101089.34;;;16.34;54.64
29371;BME280;16357;52.188;7.838;2023-04-29T09:29:06;101088.03;;;16.44;54.58
29371;BME280;16357;52.188;7.838;2023-04-29T09:31:33;101096.91;;;16.53;54.77
29371;BME280;16357;52.188;7.838;2023-04-29T09:34:00;101099.53;;;16.61;54.03
29371;BME280;16357;52.188;7.838;2023-04-29T09:36:47;101095.13;;;16.75;53.95
29371;BME280;16357;52.188;7.838;2023-04-29T09:39:19;101103.00;;;16.85;53.33
29371;BME280;16357;52.188;7.838;2023-04-29T09:44:26;101107.56;;;16.99;51.97
29371;BME280;16357;52.188;7.838;2023-04-29T09:47:03;101114.28;;;17.03;52.02
29371;BME280;16357;52.188;7.838;2023-04-29T09:49:43;101105.41;;;17.09;51.27
29371;BME280;16357;52.188;7.838;2023-04-29T09:52:13;101113.16;;;17.13;51.04
29371;BME280;16357;52.188;7.838;2023-04-29T09:54:41;101115.47;;;17.16;50.68
29371;BME280;16357;52.188;7.838;2023-04-29T09:57:09;101125.75;;;17.20;51.02
29371;BME280;16357;52.188;7.838;2023-04-29T09:59:37;101129.97;;;17.23;50.70
29371;BME280;16357;52.188;7.838;2023-04-29T10:02:12;101129.00;;;17.30;50.34
29371;BME280;16357;52.188;7.838;2023-04-29T10:04:41;101127.56;;;17.34;50.10
29371;BME280;16357;52.188;7.838;2023-04-29T10:07:13;101119.53;;;17.41;49.43
29371;BME280;16357;52.188;7.838;2023-04-29T10:09:40;101129.81;;;17.46;49.08
29371;BME280;16357;52.188;7.838;2023-04-29T10:12:06;101130.25;;;17.49;49.65
29371;BME280;16357;52.188;7.838;2023-04-29T10:14:38;101125.47;;;17.51;49.23
29371;BME280;16357;52.188;7.838;2023-04-29T10:17:10;101130.69;;;17.53;48.56
29371;BME280;16357;52.188;7.838;2023-04-29T10:19:51;101124.88;;;17.56;48.67
29371;BME280;16357;52.188;7.838;2023-04-29T10:22:32;101129.06;;;17.59;49.27
29371;BME280;16357;52.188;7.838;2023-04-29T10:25:01;101133.28;;;17.61;48.79
29371;BME280;16357;52.188;7.838;2023-04-29T10:27:31;101126.63;;;17.64;48.36
29371;BME280;16357;52.188;7.838;2023-04-29T10:29:59;101132.31;;;17.69;48.46
29371;BME280;16357;52.188;7.838;2023-04-29T10:32:27;101132.56;;;17.74;48.36
29371;BME280;16357;52.188;7.838;2023-04-29T10:35:11;101115.34;;;17.82;48.37
29371;BME280;16357;52.188;7.838;2023-04-29T10:37:43;101123.56;;;17.88;48.25
29371;BME280;16357;52.188;7.838;2023-04-29T10:40:18;101124.84;;;17.92;47.52
29371;BME280;16357;52.188;7.838;2023-04-29T10:42:51;101131.75;;;17.95;47.21
29371;BME280;16357;52.188;7.838;2023-04-29T10:45:28;101124.09;;;17.98;47.91
29371;BME280;16357;52.188;7.838;2023-04-29T10:50:35;101131.63;;;18.03;47.23
29371;BME280;16357;52.188;7.838;2023-04-29T10:53:04;101133.56;;;18.09;47.17
29371;BME280;16357;52.188;7.838;2023-04-29T10:55:35;101129.22;;;18.15;47.08
29371;BME280;16357;52.188;7.838;2023-04-29T10:58:03;101136.31;;;18.16;46.16
29371;BME280;16357;52.188;7.838;2023-04-29T11:00:33;101130.50;;;18.19;46.57
29371;BME280;16357;52.188;7.838;2023-04-29T11:03:01;101136.13;;;18.17;46.06
29371;BME280;16357;52.188;7.838;2023-04-29T11:05:32;101134.66;;;18.15;46.35
29371;BME280;16357;52.188;7.838;2023-04-29T11:08:12;101132.13;;;18.13;45.75
29371;BME280;16357;52.188;7.838;2023-04-29T11:10:42;101133.16;;;18.12;46.79
29371;BME280;16357;52.188;7.838;2023-04-29T11:13:28;101127.16;;;18.17;45.68
29371;BME280;16357;52.188;7.838;2023-04-29T11:16:09;101124.69;;;18.22;45.76
29371;BME280;16357;52.188;7.838;2023-04-29T11:21:29;101135.59;;;18.29;45.71
29371;BME280;16357;52.188;7.838;2023-04-29T11:23:56;101136.25;;;18.31;45.54
29371;BME280;16357;52.188;7.838;2023-04-29T11:26:23;101137.31;;;18.36;45.39
29371;BME280;16357;52.188;7.838;2023-04-29T11:28:50;101136.91;;;18.39;45.56
29371;BME280;16357;52.188;7.838;2023-04-29T11:31:17;101139.22;;;18.42;45.77
29371;BME280;16357;52.188;7.838;2023-04-29T11:33:43;101146.97;;;18.46;45.17
29371;BME280;16357;52.188;7.838;2023-04-29T11:36:10;101145.97;;;18.47;45.19
29371;BME280;16357;52.188;7.838;2023-04-29T11:38:39;101143.03;;;18.48;44.71
29371;BME280;16357;52.188;7.838;2023-04-29T11:41:06;101141.53;;;18.46;44.49
29371;BME280;16357;52.188;7.838;2023-04-29T11:43:32;101149.47;;;18.40;44.35
29371;BME280;16357;52.188;7.838;2023-04-29T11:45:58;101145.22;;;18.31;45.17
29371;BME280;16357;52.188;7.838;2023-04-29T11:48:25;101153.13;;;18.26;44.97
29371;BME280;16357;52.188;7.838;2023-04-29T11:50:58;101158.94;;;18.23;45.58
29371;BME280;16357;52.188;7.838;2023-04-29T11:53:25;101162.47;;;18.17;45.41
29371;BME280;16357;52.188;7.838;2023-04-29T11:55:53;101169.97;;;18.15;45.29
29371;BME280;16357;52.188;7.838;2023-04-29T11:58:21;101163.69;;;18.14;45.42
29371;BME280;16357;52.188;7.838;2023-04-29T12:00:48;101169.31;;;18.13;45.35
29371;BME280;16357;52.188;7.838;2023-04-29T12:03:16;101159.28;;;18.13;45.30
29371;BME280;16357;52.188;7.838;2023-04-29T12:05:50;101164.53;;;18.15;45.83
29371;BME280;16357;52.188;7.838;2023-04-29T12:08:25;101168.50;;;18.19;46.02
29371;BME280;16357;52.188;7.838;2023-04-29T12:10:53;101163.16;;;18.26;46.33
29371;BME280;16357;52.188;7.838;2023-04-29T12:13:22;101168.69;;;18.39;45.73
29371;BME280;16357;52.188;7.838;2023-04-29T12:15:49;101162.09;;;18.55;45.01
29371;BME280;16357;52.188;7.838;2023-04-29T12:18:17;101159.28;;;18.70;44.26
29371;BME280;16357;52.188;7.838;2023-04-29T12:20:44;101164.19;;;18.81;44.18
29371;BME280;16357;52.188;7.838;2023-04-29T12:23:16;101160.25;;;18.90;44.02
29371;BME280;16357;52.188;7.838;2023-04-29T12:25:51;101156.75;;;18.96;43.73
29371;BME280;16357;52.188;7.838;2023-04-29T12:28:18;101159.06;;;18.99;43.18
29371;BME280;16357;52.188;7.838;2023-04-29T12:30:46;101155.75;;;19.04;42.54
29371;BME280;16357;52.188;7.838;2023-04-29T12:33:19;101164.31;;;19.07;42.31
29371;BME280;16357;52.188;7.838;2023-04-29T12:35:50;101175.00;;;19.09;42.53
29371;BME280;16357;52.188;7.838;2023-04-29T12:38:25;101170.41;;;19.10;42.93
29371;BME280;16357;52.188;7.838;2023-04-29T12:40:54;101165.81;;;19.10;42.47
29371;BME280;16357;52.188;7.838;2023-04-29T12:43:28;101165.63;;;19.12;42.34
29371;BME280;16357;52.188;7.838;2023-04-29T12:48:35;101168.94;;;19.14;42.12
29371;BME280;16357;52.188;7.838;2023-04-29T12:51:11;101168.34;;;19.12;41.53
29371;BME280;16357;52.188;7.838;2023-04-29T12:53:38;101167.09;;;19.14;41.32
29371;BME280;16357;52.188;7.838;2023-04-29T12:56:05;101182.53;;;19.14;41.29
29371;BME280;16357;52.188;7.838;2023-04-29T12:58:32;101182.75;;;19.12;41.22
29371;BME280;16357;52.188;7.838;2023-04-29T13:00:59;101178.34;;;19.11;41.08
29371;BME280;16357;52.188;7.838;2023-04-29T13:03:27;101176.88;;;19.08;41.59
29371;BME280;16357;52.188;7.838;2023-04-29T13:05:54;101181.28;;;19.10;41.51
29371;BME280;16357;52.188;7.838;2023-04-29T13:08:21;101181.06;;;19.11;41.39
29371;BME280;16357;52.188;7.838;2023-04-29T13:10:48;101180.88;;;19.13;41.73
29371;BME280;16357;52.188;7.838;2023-04-29T13:13:14;101174.38;;;19.14;41.78
29371;BME280;16357;52.188;7.838;2023-04-29T13:15:41;101182.34;;;19.15;41.60
29371;BME280;16357;52.188;7.838;2023-04-29T13:18:07;101177.16;;;19.20;42.28